San Francisco, CA

11:00 AM PST en Marzo 02, 2015 (GMT -0800)
SOMA - Near Van Ness | Change Station
CLOSE
Current Station
Estación meteorológica personal
Location: San Francisco, CA
Altura: 49 ft
Estaciones meteorológicas cercanas

Alt 49 ft 37.77 °N, 122.42 °W | Updated 18 seconds ago

Nublado
Nublado
58.9 ° F
Sensación térmica 58.9 ° F
N
4.0
Viento Variable Viento desde SSO
Gusts 9.0 mph

Hoy
Alta -- | Baja -- ° F
--% Posibilidad de precipitaciones
Ayer
Alta -- | Baja -- ° F
Precip. -- pul
6:39 AM 6:04 PM
Gibosa creciente, 92% visible
Presión 29.82 pul
Visibilidad 10.0 Millas
Nubes Baja 2100 ft
Muy nublado 3600 ft
Muy nublado 11000 ft
Punto de rocío 47 ° F
Humedad 65%
Precipitaciones 0.00 pul
Espesor de la nieve No disponible.
UV 3 de una escala de 12
Polen 7.60 de una escala de 12
Calidad del aire No disponible.
Flu Activity No disponible.
METAR KSFO 021856Z 24008KT 10SM FEW021 BKN036 BKN110 14/07 A2982 RMK AO2 SLP098 T01440072

More Conditions Fewer Conditions

Presión 29.82 pul
Visibilidad 10.0 Millas
Nubes Baja 2100 ft
Muy nublado 3600 ft
Muy nublado 11000 ft
Punto de rocío 47 ° F
Humedad 65%
Precipitaciones 0.00 pul
Espesor de la nieve No disponible.
UV 3 de una escala de 12
Polen 7.60 de una escala de 12
Calidad del aire No disponible.
Flu Activity No disponible.
METAR KSFO 021856Z 24008KT 10SM FEW021 BKN036 BKN110 14/07 A2982 RMK AO2 SLP098 T01440072

More Conditions Fewer Conditions

10-Day Weather Forecast

Almanac

Astronomía

Mar. 02, 2015 Salida Puesta
Hora real
Crepúsculo civil
Crepúsculo náutico
Crepúsculo astronómico
Luna
Horas de luz
Horas de luz
Tomorrow will be .
, % of the Moon is Illuminated

Extremos de hoy

Máximos del estado Bajos del estado

Community

WunderPhotos

Upload Photos

1,801,913 ¡fotos cargadas!

WunderBlogs® & News

Nearby

Calidad del aire

  Calidad del aire Índice AQ Contaminante
Not available.

Grosos de nieve

Estación Profundido Altura

Actividad de terremotos

Ciudad Distance Mag. Tiempo y dato
Magnitud mínima muestra es 2,5.

Temperaturas de aguas costeras

Lugar Temperatura

Estaciones meteorológicas cercanas